createdAt,value
2018-12-20T00:01:36.167Z,1.80
2018-12-20T00:04:04.095Z,2.47
2018-12-20T00:06:32.044Z,2.43
2018-12-20T00:08:59.923Z,2.03
2018-12-20T00:11:27.681Z,2.70
2018-12-20T00:13:55.569Z,2.23
2018-12-20T00:17:01.205Z,1.80
2018-12-20T00:19:29.783Z,2.53
2018-12-20T00:21:57.536Z,2.20
2018-12-20T00:24:25.321Z,2.63
2018-12-20T00:26:53.079Z,2.43
2018-12-20T00:29:20.859Z,2.33
2018-12-20T00:32:13.125Z,2.20
2018-12-20T00:34:41.548Z,2.00
2018-12-20T00:37:09.353Z,2.33
2018-12-20T00:39:37.074Z,2.40
2018-12-20T00:42:04.981Z,2.40
2018-12-20T00:44:37.398Z,2.63
2018-12-20T00:50:10.278Z,2.00
2018-12-20T00:52:38.212Z,2.50
2018-12-20T00:55:06.078Z,2.53
2018-12-20T00:57:33.799Z,2.70
2018-12-20T01:00:01.700Z,3.10
2018-12-20T01:02:57.501Z,2.17
2018-12-20T01:05:26.479Z,2.43
2018-12-20T01:07:54.284Z,2.10
2018-12-20T01:10:23.259Z,2.33
2018-12-20T01:12:51.063Z,2.53
2018-12-20T01:15:19.727Z,2.50
2018-12-20T01:17:47.539Z,2.30
2018-12-20T01:20:15.745Z,2.57
2018-12-20T01:22:43.640Z,2.40
2018-12-20T01:25:11.414Z,2.53
2018-12-20T01:27:39.467Z,2.40
2018-12-20T01:30:07.586Z,2.20
2018-12-20T01:32:35.475Z,2.07
2018-12-20T01:35:03.595Z,2.47
2018-12-20T01:37:31.934Z,2.60
2018-12-20T01:39:59.971Z,2.90
2018-12-20T01:42:27.892Z,2.60
2018-12-20T01:44:55.629Z,2.37
2018-12-20T01:47:24.677Z,2.50
2018-12-20T01:49:52.726Z,2.40
2018-12-20T01:52:21.098Z,2.57
2018-12-20T01:54:49.489Z,2.40
2018-12-20T01:57:17.337Z,2.90
2018-12-20T01:59:45.152Z,1.90
2018-12-20T02:02:13.987Z,2.37
2018-12-20T02:04:41.746Z,2.30
2018-12-20T02:07:10.233Z,2.03
2018-12-20T02:09:38.089Z,2.13
2018-12-20T02:12:06.081Z,2.30
2018-12-20T02:14:33.876Z,2.00
2018-12-20T02:17:02.714Z,2.00
2018-12-20T02:19:30.705Z,2.30
2018-12-20T02:21:58.693Z,2.27
2018-12-20T02:24:26.960Z,2.27
2018-12-20T02:26:55.243Z,2.20
2018-12-20T02:29:23.012Z,2.47
2018-12-20T02:31:50.952Z,2.10
2018-12-20T02:34:18.943Z,2.00
2018-12-20T02:36:46.779Z,1.97
2018-12-20T02:39:14.650Z,2.10
2018-12-20T02:41:43.585Z,1.97
2018-12-20T02:44:11.649Z,1.77
2018-12-20T02:46:39.481Z,2.13
2018-12-20T02:49:07.799Z,1.90
2018-12-20T02:51:35.846Z,1.63
2018-12-20T02:54:04.083Z,2.03
2018-12-20T02:56:33.647Z,2.03
2018-12-20T02:59:01.683Z,2.00
2018-12-20T03:01:29.936Z,1.80
2018-12-20T03:03:57.686Z,1.97
2018-12-20T03:06:25.468Z,1.70
2018-12-20T03:08:53.193Z,1.80
2018-12-20T03:11:20.954Z,1.70
2018-12-20T03:13:49.005Z,2.10
2018-12-20T03:16:17.023Z,1.90
2018-12-20T03:18:44.935Z,1.80
2018-12-20T03:21:13.134Z,1.87
2018-12-20T03:23:41.076Z,1.77
2018-12-20T03:26:08.891Z,2.30
2018-12-20T03:28:36.901Z,1.80
2018-12-20T03:31:05.081Z,1.60
2018-12-20T03:33:32.924Z,1.50
2018-12-20T03:36:00.842Z,1.87
2018-12-20T03:38:28.587Z,1.67
2018-12-20T03:40:56.333Z,1.73
2018-12-20T03:43:25.233Z,1.70
2018-12-20T03:45:53.150Z,1.83
2018-12-20T03:48:21.378Z,1.97
2018-12-20T03:50:49.238Z,1.90
2018-12-20T03:53:17.447Z,1.70
2018-12-20T03:55:45.848Z,1.57
2018-12-20T03:58:14.194Z,1.40
2018-12-20T04:00:42.048Z,1.40
2018-12-20T04:03:10.380Z,1.70
2018-12-20T04:05:38.235Z,1.60
2018-12-20T04:08:06.092Z,1.40
2018-12-20T04:10:37.509Z,1.70
2018-12-20T04:13:05.240Z,1.70
2018-12-20T04:15:37.778Z,1.67
2018-12-20T04:18:04.453Z,1.53
2018-12-20T04:20:32.384Z,1.50
2018-12-20T04:23:00.277Z,1.40
2018-12-20T04:25:28.307Z,1.77
2018-12-20T04:27:56.096Z,1.50
2018-12-20T04:30:23.894Z,1.40
2018-12-20T04:32:51.863Z,1.20
2018-12-20T04:35:20.543Z,1.80
2018-12-20T04:37:48.575Z,1.50
2018-12-20T04:40:16.437Z,1.30
2018-12-20T04:42:44.282Z,1.40
2018-12-20T04:45:12.381Z,1.10
2018-12-20T04:47:40.824Z,1.00
2018-12-20T04:50:08.737Z,1.60
2018-12-20T04:52:36.463Z,1.20
2018-12-20T04:55:04.849Z,0.80
2018-12-20T04:57:33.503Z,1.10
2018-12-20T05:00:01.686Z,0.80
2018-12-20T05:02:29.829Z,0.87
2018-12-20T05:04:57.802Z,0.70
2018-12-20T05:07:25.648Z,0.73
2018-12-20T05:09:53.672Z,0.90
2018-12-20T05:12:21.626Z,0.70
2018-12-20T05:14:49.426Z,0.90
2018-12-20T05:17:17.344Z,0.60
2018-12-20T05:19:45.142Z,0.90
2018-12-20T05:22:13.188Z,0.80
2018-12-20T05:24:41.079Z,0.80
2018-12-20T05:27:09.349Z,0.90
2018-12-20T05:29:37.300Z,1.10
2018-12-20T05:32:05.170Z,1.00
2018-12-20T05:34:33.212Z,1.00
2018-12-20T05:37:00.943Z,0.90
2018-12-20T05:39:28.775Z,0.83
2018-12-20T05:41:56.889Z,0.93
2018-12-20T05:44:24.712Z,1.00
2018-12-20T05:46:52.465Z,1.00
2018-12-20T05:49:20.228Z,1.10
2018-12-20T05:51:48.215Z,1.00
2018-12-20T05:54:15.972Z,0.80
2018-12-20T05:56:43.965Z,1.07
2018-12-20T05:59:11.911Z,1.10
2018-12-20T06:01:39.865Z,1.10
2018-12-20T06:04:07.757Z,1.13
2018-12-20T06:06:35.899Z,1.00
2018-12-20T06:09:11.286Z,1.30
2018-12-20T06:11:39.837Z,1.20
2018-12-20T06:14:08.371Z,1.40
2018-12-20T06:16:36.376Z,1.50
2018-12-20T06:19:05.015Z,1.57
2018-12-20T06:21:35.173Z,1.50
2018-12-20T06:24:05.947Z,1.23
2018-12-20T06:26:35.355Z,1.27
2018-12-20T06:29:03.146Z,1.00
2018-12-20T06:31:30.941Z,1.00
2018-12-20T06:33:58.726Z,1.55
2018-12-20T06:36:27.657Z,1.07
2018-12-20T06:40:44.570Z,1.53
2018-12-20T06:43:12.811Z,1.42
2018-12-20T06:45:42.109Z,1.73
2018-12-20T06:48:19.282Z,1.27
2018-12-20T06:50:50.678Z,1.90
2018-12-20T06:53:18.728Z,1.50
2018-12-20T06:55:46.477Z,2.00
2018-12-20T06:58:14.630Z,2.20
2018-12-20T07:00:42.421Z,2.70
2018-12-20T07:03:11.582Z,2.30
2018-12-20T07:08:46.735Z,1.80
2018-12-20T07:11:45.541Z,2.70
2018-12-20T07:14:14.478Z,3.03
2018-12-20T07:23:06.313Z,2.60
2018-12-20T07:25:34.185Z,1.90
2018-12-20T07:28:09.799Z,2.62
2018-12-20T07:30:38.388Z,2.10
2018-12-20T07:33:06.374Z,2.23
2018-12-20T07:38:42.740Z,2.30
2018-12-20T07:47:33.601Z,2.13
2018-12-20T07:50:01.570Z,1.73
2018-12-20T07:55:39.427Z,1.60
2018-12-20T07:58:07.254Z,1.60
2018-12-20T08:03:43.275Z,1.40
2018-12-20T08:09:39.687Z,1.30
2018-12-20T08:18:29.020Z,1.47
2018-12-20T08:21:04.016Z,1.87
2018-12-20T08:23:36.603Z,1.50
2018-12-20T08:26:06.847Z,1.70
2018-12-20T08:28:39.093Z,1.50
2018-12-20T08:31:44.545Z,1.70
2018-12-20T08:34:16.098Z,1.70
2018-12-20T08:39:51.335Z,1.80
2018-12-20T08:45:28.985Z,1.70
2018-12-20T08:48:18.242Z,1.50
2018-12-20T08:50:46.067Z,1.37
2018-12-20T08:53:16.255Z,1.27
2018-12-20T08:56:18.846Z,1.80
2018-12-20T08:58:46.707Z,1.33
2018-12-20T09:04:21.632Z,1.50
2018-12-20T09:10:00.066Z,1.30
2018-12-20T09:15:35.732Z,1.27
2018-12-20T09:18:29.012Z,1.40
2018-12-20T09:20:59.961Z,1.37
2018-12-20T09:23:29.993Z,1.30
2018-12-20T09:26:00.117Z,1.50
2018-12-20T09:28:29.122Z,1.20
2018-12-20T09:31:36.457Z,0.90
2018-12-20T09:34:04.335Z,1.00
2018-12-20T09:39:40.791Z,0.90
2018-12-20T09:48:25.468Z,0.80
2018-12-20T09:50:53.186Z,0.77
2018-12-20T09:53:35.947Z,1.10
2018-12-20T09:56:06.428Z,1.10
2018-12-20T09:58:38.913Z,0.70
2018-12-20T10:01:12.385Z,0.67
2018-12-20T10:03:46.268Z,0.70
2018-12-20T10:06:31.254Z,0.80
2018-12-20T10:12:09.439Z,1.20
2018-12-20T10:14:41.741Z,1.47
2018-12-20T10:17:10.809Z,1.17
2018-12-20T10:19:41.693Z,1.00
2018-12-20T10:22:41.938Z,0.90
2018-12-20T10:25:14.493Z,1.07
2018-12-20T10:28:14.421Z,0.73
2018-12-20T10:30:49.545Z,1.20
2018-12-20T10:33:25.208Z,1.60
2018-12-20T10:35:59.890Z,1.07
2018-12-20T10:38:29.443Z,1.10
2018-12-20T10:41:04.830Z,1.50
2018-12-20T10:43:38.136Z,1.07
2018-12-20T10:46:34.968Z,1.40
2018-12-20T10:49:07.688Z,1.00
2018-12-20T10:51:57.818Z,1.30
2018-12-20T10:54:27.193Z,1.17
2018-12-20T10:57:21.198Z,1.13
2018-12-20T10:59:49.502Z,1.20
2018-12-20T11:02:51.920Z,0.90
2018-12-20T11:05:22.839Z,0.90
2018-12-20T11:08:17.431Z,1.00
2018-12-20T11:10:45.764Z,0.73
2018-12-20T11:13:41.883Z,0.77
2018-12-20T11:16:09.691Z,1.00
2018-12-20T11:18:41.726Z,1.00
2018-12-20T11:24:21.587Z,1.60
2018-12-20T11:27:24.415Z,0.80
2018-12-20T11:29:57.277Z,0.93
2018-12-20T11:35:32.635Z,1.00
2018-12-20T11:38:37.493Z,0.73
2018-12-20T11:41:08.833Z,0.80
2018-12-20T11:52:51.473Z,1.40
2018-12-20T11:55:25.501Z,1.10
2018-12-20T11:57:56.650Z,0.93
2018-12-20T12:00:25.725Z,1.00
2018-12-20T12:03:05.066Z,1.30
2018-12-20T12:12:14.157Z,1.47
2018-12-20T12:15:11.601Z,2.03
2018-12-20T12:17:40.918Z,1.57
2018-12-20T12:23:18.504Z,1.00
2018-12-20T12:28:55.827Z,1.17
2018-12-20T12:31:58.157Z,1.13
2018-12-20T12:34:27.878Z,1.53
2018-12-20T12:36:56.528Z,2.45
2018-12-20T12:42:35.652Z,1.50
2018-12-20T12:45:34.302Z,1.10
2018-12-20T12:48:04.061Z,1.47
2018-12-20T12:56:46.793Z,1.80
2018-12-20T12:59:16.686Z,1.20
2018-12-20T13:01:54.086Z,2.40
2018-12-20T13:04:21.786Z,1.57
2018-12-20T13:06:50.641Z,1.87
2018-12-20T13:09:46.139Z,1.50
2018-12-20T13:12:19.369Z,1.63
2018-12-20T13:24:10.582Z,1.07
2018-12-20T13:33:01.335Z,1.17
2018-12-20T13:35:35.062Z,1.00
2018-12-20T13:38:12.435Z,3.83
2018-12-20T13:40:40.901Z,1.30
2018-12-20T13:43:09.177Z,1.23
2018-12-20T13:46:16.233Z,1.90
2018-12-20T13:48:49.288Z,1.33
2018-12-20T13:54:25.999Z,1.13
2018-12-20T13:56:58.520Z,1.70
2018-12-20T14:14:34.551Z,1.60
2018-12-20T14:17:08.869Z,2.90
2018-12-20T14:22:47.409Z,1.40
2018-12-20T14:25:54.263Z,2.10
2018-12-20T14:28:23.836Z,2.40
2018-12-20T14:31:31.467Z,1.53
2018-12-20T14:34:02.685Z,1.30
2018-12-20T14:37:11.262Z,2.10
2018-12-20T14:39:39.134Z,1.40
2018-12-20T14:42:08.129Z,1.43
2018-12-20T14:44:38.242Z,2.30
2018-12-20T14:47:06.273Z,2.50
2018-12-20T14:52:41.528Z,2.20
2018-12-20T14:55:38.674Z,1.57
2018-12-20T14:58:06.630Z,2.00
2018-12-20T15:01:06.352Z,1.60
2018-12-20T15:03:37.999Z,1.50
2018-12-20T15:06:09.961Z,2.00
2018-12-20T15:08:38.491Z,1.63
2018-12-20T15:11:14.552Z,4.57
2018-12-20T15:14:18.002Z,2.13
2018-12-20T15:16:49.399Z,4.30
2018-12-20T15:22:25.213Z,2.87
2018-12-20T15:25:22.339Z,1.37
2018-12-20T15:27:50.665Z,1.77
2018-12-20T15:30:47.211Z,1.97
2018-12-20T15:33:15.813Z,1.60
2018-12-20T15:36:24.059Z,1.80
2018-12-20T15:38:55.184Z,1.80
2018-12-20T15:44:35.144Z,2.30
2018-12-20T15:47:40.739Z,2.07
2018-12-20T15:50:12.888Z,1.93
2018-12-20T15:52:43.895Z,2.10
2018-12-20T15:58:20.094Z,1.67
2018-12-20T16:01:23.863Z,1.87
2018-12-20T16:03:59.709Z,1.80
2018-12-20T16:06:43.840Z,1.80
2018-12-20T16:09:12.273Z,2.27
2018-12-20T16:12:16.203Z,1.70
2018-12-20T16:14:45.071Z,3.90
2018-12-20T16:17:40.425Z,3.50
2018-12-20T16:20:08.854Z,3.60
2018-12-20T16:22:38.794Z,2.27
2018-12-20T16:25:08.391Z,2.97
2018-12-20T16:27:41.013Z,2.03
2018-12-20T16:30:44.186Z,2.63
2018-12-20T16:33:12.880Z,3.80
2018-12-20T16:38:52.534Z,2.30
2018-12-20T16:41:48.371Z,3.40
2018-12-20T16:44:17.381Z,3.10
2018-12-20T16:49:53.580Z,2.37
2018-12-20T16:52:44.849Z,2.63
2018-12-20T16:55:14.283Z,2.57
2018-12-20T16:57:43.787Z,2.10
2018-12-20T17:00:42.607Z,2.10
2018-12-20T17:03:10.665Z,2.10
2018-12-20T17:08:48.332Z,1.93
2018-12-20T17:14:23.753Z,2.50
2018-12-20T17:20:01.202Z,2.50
2018-12-20T17:22:57.896Z,2.57
2018-12-20T17:25:27.898Z,2.20
2018-12-20T17:27:57.268Z,3.80
2018-12-20T17:36:48.121Z,2.37
2018-12-20T17:39:15.930Z,1.93
2018-12-20T17:41:44.658Z,2.30
2018-12-20T17:44:13.284Z,2.30
2018-12-20T17:46:41.192Z,2.27
2018-12-20T17:52:16.449Z,2.17
2018-12-20T17:55:14.787Z,2.53
2018-12-20T17:57:43.170Z,1.80
2018-12-20T18:06:33.749Z,2.23
2018-12-20T18:09:04.578Z,3.53
2018-12-20T18:11:40.265Z,3.60
2018-12-20T18:14:08.073Z,1.90
2018-12-20T18:16:35.788Z,1.90
2018-12-20T18:22:12.780Z,3.03
2018-12-20T18:25:18.384Z,2.17
2018-12-20T18:27:47.406Z,2.70
2018-12-20T18:30:54.482Z,2.20
2018-12-20T18:33:28.407Z,2.40
2018-12-20T18:36:26.752Z,2.37
2018-12-20T18:38:54.738Z,2.63
2018-12-20T18:44:32.558Z,2.90
2018-12-20T18:47:28.686Z,2.20
2018-12-20T18:49:56.652Z,1.90
2018-12-20T18:52:52.333Z,2.03
2018-12-20T18:55:23.790Z,2.13
2018-12-20T18:57:52.329Z,2.43
2018-12-20T19:00:57.369Z,2.57
2018-12-20T19:03:25.311Z,2.70
2018-12-20T19:09:11.288Z,1.90
2018-12-20T19:14:46.247Z,2.30
2018-12-20T19:20:22.997Z,1.90
2018-12-20T19:23:25.183Z,1.70
2018-12-20T19:25:56.778Z,1.87
2018-12-20T19:28:56.022Z,1.93
2018-12-20T19:34:00.021Z,2.17
2018-12-20T19:37:01.879Z,1.80
2018-12-20T19:39:31.864Z,1.70
2018-12-20T19:42:26.614Z,2.00
2018-12-20T19:44:56.648Z,2.10
2018-12-20T19:47:53.516Z,2.10
2018-12-20T19:50:22.625Z,1.90
2018-12-20T19:53:15.902Z,1.80
2018-12-20T19:55:44.552Z,1.80
2018-12-20T19:58:41.151Z,2.20
2018-12-20T20:01:10.601Z,2.20
2018-12-20T20:16:10.092Z,2.20
2018-12-20T20:24:53.744Z,1.87
2018-12-20T20:27:56.071Z,1.90
2018-12-20T20:30:24.813Z,2.80
2018-12-20T20:36:00.893Z,2.37
2018-12-20T20:41:36.679Z,2.87
2018-12-20T20:47:12.080Z,2.93
2018-12-20T20:52:49.583Z,2.40
2018-12-20T20:55:18.146Z,3.53
2018-12-20T20:57:46.204Z,2.77
2018-12-20T21:00:16.569Z,2.47
2018-12-20T21:02:44.331Z,2.57
2018-12-20T21:05:12.742Z,2.40
2018-12-20T21:07:41.761Z,3.17
2018-12-20T21:13:17.415Z,1.70
2018-12-20T21:16:09.370Z,2.10
2018-12-20T21:18:37.194Z,2.17
2018-12-20T21:21:32.410Z,1.80
2018-12-20T21:24:00.151Z,1.90
2018-12-20T21:26:32.147Z,1.73
2018-12-20T21:32:07.624Z,2.07
2018-12-20T21:34:36.331Z,1.80
2018-12-20T21:37:04.876Z,1.77
2018-12-20T21:39:33.432Z,2.10
2018-12-20T21:42:01.249Z,1.67
2018-12-20T21:44:29.369Z,1.97
2018-12-20T21:46:58.496Z,1.77
2018-12-20T21:52:33.358Z,1.97
2018-12-20T21:55:01.933Z,1.83
2018-12-20T21:57:32.875Z,1.43
2018-12-20T22:00:25.875Z,1.93
2018-12-20T22:02:53.716Z,1.80
2018-12-20T22:08:28.376Z,1.30
2018-12-20T22:14:04.117Z,1.87
2018-12-20T22:19:39.880Z,1.63
2018-12-20T22:25:22.832Z,1.60
2018-12-20T22:27:53.852Z,1.50
2018-12-20T22:33:29.840Z,1.43
2018-12-20T22:35:58.817Z,1.67
2018-12-20T22:38:27.913Z,1.60
2018-12-20T22:40:57.721Z,1.43
2018-12-20T22:43:26.392Z,1.50
2018-12-20T22:46:22.598Z,1.50
2018-12-20T22:48:50.672Z,1.40
2018-12-20T22:51:18.846Z,1.37
2018-12-20T22:53:46.600Z,1.50
2018-12-20T22:56:14.921Z,1.23
2018-12-20T22:58:42.681Z,1.77
2018-12-20T23:01:11.667Z,1.40
2018-12-20T23:03:39.712Z,1.30
2018-12-20T23:06:07.743Z,1.50
2018-12-20T23:08:35.527Z,1.50
2018-12-20T23:11:03.495Z,1.20
2018-12-20T23:13:31.571Z,1.30
2018-12-20T23:16:00.439Z,1.20
2018-12-20T23:18:28.187Z,1.40
2018-12-20T23:21:04.727Z,1.67
2018-12-20T23:23:25.830Z,1.40
2018-12-20T23:25:55.349Z,1.00
2018-12-20T23:28:23.485Z,1.00
2018-12-20T23:30:51.367Z,1.63
2018-12-20T23:33:19.067Z,1.20
2018-12-20T23:35:46.816Z,1.50
2018-12-20T23:38:14.542Z,1.10
2018-12-20T23:40:42.268Z,1.23
2018-12-20T23:43:09.991Z,1.00
2018-12-20T23:45:37.805Z,1.10
2018-12-20T23:48:05.814Z,1.30
2018-12-20T23:50:33.909Z,1.73
2018-12-20T23:53:01.858Z,1.30
2018-12-20T23:55:29.622Z,1.27
2018-12-20T23:57:58.787Z,1.20
